createdAt,value
2022-08-28T00:00:30.114Z,12.75
2022-08-28T00:02:57.890Z,10.50
2022-08-28T00:05:27.297Z,16.80
2022-08-28T00:07:54.086Z,11.93
2022-08-28T00:10:22.691Z,17.88
2022-08-28T00:12:50.939Z,12.27
2022-08-28T00:15:23.292Z,11.63
2022-08-28T00:17:50.766Z,13.05
2022-08-28T00:20:21.201Z,10.48
2022-08-28T00:22:48.774Z,17.00
2022-08-28T00:25:16.096Z,14.80
2022-08-28T00:27:55.204Z,16.08
2022-08-28T00:30:24.580Z,14.98
2022-08-28T00:32:52.642Z,10.68
2022-08-28T00:35:20.014Z,10.02
2022-08-28T00:37:48.168Z,8.73
2022-08-28T00:40:16.697Z,9.88
2022-08-28T00:42:47.172Z,12.00
2022-08-28T00:45:18.255Z,11.68
2022-08-28T00:47:45.862Z,11.60
2022-08-28T00:50:18.181Z,11.30
2022-08-28T00:52:46.804Z,11.15
2022-08-28T00:55:20.217Z,12.40
2022-08-28T00:57:52.957Z,13.82
2022-08-28T01:00:23.974Z,13.07
2022-08-28T01:02:51.529Z,13.25
2022-08-28T01:05:18.711Z,15.00
2022-08-28T01:07:46.569Z,15.23
2022-08-28T01:10:20.589Z,17.92
2022-08-28T01:12:48.394Z,14.02
2022-08-28T01:15:17.819Z,15.93
2022-08-28T01:17:50.187Z,13.15
2022-08-28T01:20:22.214Z,14.45
2022-08-28T01:22:54.979Z,16.17
2022-08-28T01:25:22.574Z,14.95
2022-08-28T01:27:49.325Z,14.48
2022-08-28T01:30:19.784Z,15.07
2022-08-28T01:32:49.593Z,13.75
2022-08-28T01:35:21.009Z,15.45
2022-08-28T01:37:47.783Z,15.52
2022-08-28T01:40:18.487Z,16.67
2022-08-28T01:42:45.232Z,16.10
2022-08-28T01:45:15.928Z,14.27
2022-08-28T01:47:44.718Z,13.02
2022-08-28T01:50:14.182Z,15.77
2022-08-28T01:52:41.820Z,12.00
2022-08-28T01:55:11.296Z,12.20
2022-08-28T01:57:49.838Z,13.98
2022-08-28T02:00:17.414Z,14.20
2022-08-28T02:02:44.406Z,11.80
2022-08-28T02:05:11.757Z,10.93
2022-08-28T02:07:39.087Z,12.15
2022-08-28T02:10:07.970Z,13.25
2022-08-28T02:12:36.062Z,12.43
2022-08-28T02:15:02.892Z,12.32
2022-08-28T02:17:29.666Z,10.88
2022-08-28T02:19:56.364Z,10.35
2022-08-28T02:22:23.069Z,12.65
2022-08-28T02:24:49.854Z,12.75
2022-08-28T02:27:17.039Z,17.38
2022-08-28T02:29:44.346Z,14.95
2022-08-28T02:32:11.130Z,12.13
2022-08-28T02:34:37.897Z,13.70
2022-08-28T02:37:04.924Z,10.60
2022-08-28T02:39:31.782Z,12.57
2022-08-28T02:41:58.947Z,9.27
2022-08-28T02:44:25.728Z,9.38
2022-08-28T02:46:52.853Z,11.68
2022-08-28T02:49:20.976Z,11.05
2022-08-28T02:51:47.799Z,12.80
2022-08-28T02:54:14.798Z,35.30
2022-08-28T02:56:45.673Z,26.05
2022-08-28T02:59:13.589Z,16.52
2022-08-28T03:01:40.514Z,14.27
2022-08-28T03:04:07.299Z,13.27
2022-08-28T03:06:33.988Z,14.02
2022-08-28T03:09:00.754Z,9.52
2022-08-28T03:11:27.630Z,13.02
2022-08-28T03:13:55.664Z,12.98
2022-08-28T03:16:22.616Z,9.27
2022-08-28T03:18:49.363Z,8.93
2022-08-28T03:21:16.141Z,11.52
2022-08-28T03:23:42.865Z,12.82
2022-08-28T03:26:15.345Z,11.02
2022-08-28T03:28:45.612Z,14.77
2022-08-28T03:31:14.655Z,10.13
2022-08-28T03:33:42.627Z,11.20
2022-08-28T03:36:15.022Z,11.88
2022-08-28T03:38:42.151Z,9.68
2022-08-28T03:41:13.415Z,11.43
2022-08-28T03:43:40.297Z,10.98
2022-08-28T03:46:14.163Z,11.95
2022-08-28T03:48:43.519Z,8.52
2022-08-28T03:51:18.090Z,19.80
2022-08-28T03:53:45.480Z,13.18
2022-08-28T03:56:14.473Z,11.82
2022-08-28T03:58:41.681Z,10.77
2022-08-28T04:01:09.146Z,8.93
2022-08-28T04:03:36.684Z,8.45
2022-08-28T04:06:03.682Z,6.63
2022-08-28T04:08:30.585Z,11.13
2022-08-28T04:10:59.565Z,9.35
2022-08-28T04:13:26.809Z,17.05
2022-08-28T04:16:01.806Z,9.15
2022-08-28T04:18:31.895Z,11.38
2022-08-28T04:21:04.053Z,10.15
2022-08-28T04:23:30.800Z,9.48
2022-08-28T04:25:57.760Z,14.27
2022-08-28T04:28:26.017Z,11.07
2022-08-28T04:30:57.224Z,9.63
2022-08-28T04:33:25.478Z,10.02
2022-08-28T04:35:52.447Z,14.88
2022-08-28T04:38:19.214Z,9.73
2022-08-28T04:40:46.006Z,11.82
2022-08-28T04:43:12.767Z,13.73
2022-08-28T04:45:44.047Z,11.25
2022-08-28T04:48:13.454Z,15.75
2022-08-28T04:50:45.182Z,9.35
2022-08-28T04:53:12.423Z,13.23
2022-08-28T04:55:53.623Z,14.07
2022-08-28T04:58:22.839Z,15.23
2022-08-28T05:00:52.091Z,11.95
2022-08-28T05:03:18.971Z,11.05
2022-08-28T05:05:48.494Z,14.75
2022-08-28T05:08:17.382Z,10.10
2022-08-28T05:10:44.320Z,9.95
2022-08-28T05:13:12.156Z,12.57
2022-08-28T05:15:40.335Z,9.57
2022-08-28T05:18:07.184Z,13.80
2022-08-28T05:20:43.195Z,11.30
2022-08-28T05:23:10.564Z,12.65
2022-08-28T05:25:39.673Z,14.25
2022-08-28T05:28:10.928Z,12.15
2022-08-28T05:30:40.104Z,12.80
2022-08-28T05:33:08.310Z,8.77
2022-08-28T05:35:40.856Z,12.15
2022-08-28T05:38:08.141Z,13.70
2022-08-28T05:40:41.002Z,16.75
2022-08-28T05:43:07.736Z,14.35
2022-08-28T05:45:34.466Z,11.02
2022-08-28T05:48:01.219Z,13.05
2022-08-28T05:50:27.993Z,14.35
2022-08-28T05:52:54.754Z,17.23
2022-08-28T05:55:21.436Z,12.68
2022-08-28T05:57:48.100Z,12.55
2022-08-28T06:00:15.129Z,12.20
2022-08-28T06:02:42.458Z,15.85
2022-08-28T06:05:09.646Z,14.48
2022-08-28T06:07:41.146Z,11.05
2022-08-28T06:10:10.801Z,14.27
2022-08-28T06:12:38.287Z,12.20
2022-08-28T06:15:06.116Z,14.98
2022-08-28T06:17:33.057Z,11.32
2022-08-28T06:19:59.818Z,15.88
2022-08-28T06:22:26.489Z,15.60
2022-08-28T06:24:54.033Z,16.80
2022-08-28T06:27:20.843Z,15.65
2022-08-28T06:29:47.527Z,18.00
2022-08-28T06:32:14.675Z,17.10
2022-08-28T06:34:41.667Z,14.82
2022-08-28T06:37:09.968Z,12.23
2022-08-28T06:39:36.868Z,16.63
2022-08-28T06:42:03.725Z,16.25
2022-08-28T06:44:32.372Z,15.63
2022-08-28T06:47:00.631Z,18.33
2022-08-28T06:49:27.361Z,13.98
2022-08-28T06:51:54.347Z,14.77
2022-08-28T06:54:23.333Z,13.18
2022-08-28T06:56:51.586Z,16.60
2022-08-28T06:59:18.583Z,12.52
2022-08-28T07:01:45.578Z,14.93
2022-08-28T07:04:16.456Z,12.75
2022-08-28T07:06:47.074Z,12.27
2022-08-28T07:09:14.578Z,14.40
2022-08-28T07:11:44.875Z,14.88
2022-08-28T07:14:11.915Z,17.55
2022-08-28T07:16:38.919Z,17.13
2022-08-28T07:19:11.369Z,13.63
2022-08-28T07:21:41.931Z,20.33
2022-08-28T07:24:10.667Z,16.50
2022-08-28T07:26:38.137Z,13.55
2022-08-28T07:29:09.991Z,18.88
2022-08-28T07:31:44.312Z,15.52
2022-08-28T07:34:12.540Z,11.32
2022-08-28T07:36:39.812Z,13.63
2022-08-28T07:39:08.490Z,17.60
2022-08-28T07:41:39.233Z,16.45
2022-08-28T07:44:25.947Z,11.52
2022-08-28T07:46:56.741Z,15.25
2022-08-28T07:49:24.727Z,17.33
2022-08-28T07:51:54.171Z,15.07
2022-08-28T07:54:22.611Z,13.68
2022-08-28T07:56:49.786Z,10.88
2022-08-28T07:59:17.553Z,15.60
2022-08-28T08:01:48.123Z,13.18
2022-08-28T08:04:19.403Z,11.98
2022-08-28T08:06:47.018Z,11.57
2022-08-28T08:09:16.209Z,13.85
2022-08-28T08:11:43.388Z,16.67
2022-08-28T08:14:10.694Z,14.35
2022-08-28T08:16:41.245Z,10.77
2022-08-28T08:19:14.184Z,10.75
2022-08-28T08:21:45.503Z,17.83
2022-08-28T08:24:19.434Z,12.73
2022-08-28T08:26:58.998Z,15.65
2022-08-28T08:29:32.642Z,15.75
2022-08-28T08:32:06.257Z,11.98
2022-08-28T08:34:38.987Z,9.18
2022-08-28T08:37:20.494Z,17.20
2022-08-28T08:39:47.268Z,10.73
2022-08-28T08:42:26.663Z,11.50
2022-08-28T08:44:56.128Z,20.63
2022-08-28T08:47:58.921Z,12.55
2022-08-28T08:50:29.502Z,15.85
2022-08-28T08:53:02.804Z,9.43
2022-08-28T08:55:31.663Z,9.90
2022-08-28T08:58:07.708Z,10.63
2022-08-28T09:00:41.826Z,10.15
2022-08-28T09:03:22.215Z,9.60
2022-08-28T09:05:49.644Z,9.25
2022-08-28T09:08:30.687Z,13.48
2022-08-28T09:11:05.002Z,7.72
2022-08-28T09:13:41.554Z,9.00
2022-08-28T09:16:18.148Z,9.65
2022-08-28T09:18:45.283Z,11.88
2022-08-28T09:21:12.243Z,12.02
2022-08-28T09:23:39.065Z,12.48
2022-08-28T09:26:12.547Z,15.98
2022-08-28T09:28:41.030Z,13.15
2022-08-28T09:31:12.843Z,12.45
2022-08-28T09:33:46.648Z,10.02
2022-08-28T09:36:34.844Z,8.38
2022-08-28T09:39:14.724Z,11.98
2022-08-28T09:42:09.439Z,9.77
2022-08-28T09:45:02.063Z,12.65
2022-08-28T09:47:49.703Z,11.32
2022-08-28T09:50:37.665Z,13.02
2022-08-28T09:53:10.662Z,11.20
2022-08-28T09:55:53.839Z,10.98
2022-08-28T09:58:21.570Z,12.55
2022-08-28T10:00:57.802Z,9.88
2022-08-28T10:03:35.506Z,13.45
2022-08-28T10:06:17.867Z,10.95
2022-08-28T10:08:50.179Z,13.15
2022-08-28T10:11:28.708Z,10.20
2022-08-28T10:14:05.212Z,11.20
2022-08-28T10:16:41.723Z,7.93
2022-08-28T10:19:29.275Z,11.57
2022-08-28T10:22:15.758Z,9.00
2022-08-28T10:25:02.391Z,10.25
2022-08-28T10:27:44.373Z,12.82
2022-08-28T10:30:18.093Z,15.18
2022-08-28T10:33:06.719Z,14.65
2022-08-28T10:35:49.021Z,14.48
2022-08-28T10:38:18.854Z,12.80
2022-08-28T10:41:03.541Z,13.30
2022-08-28T10:43:34.499Z,13.38
2022-08-28T10:46:06.980Z,15.40
2022-08-28T10:48:40.312Z,11.65
2022-08-28T10:51:20.776Z,12.25
2022-08-28T10:54:08.225Z,12.95
2022-08-28T10:56:52.238Z,14.32
2022-08-28T10:59:23.819Z,14.80
2022-08-28T11:01:52.529Z,15.98
2022-08-28T11:04:25.484Z,13.52
2022-08-28T11:07:02.246Z,12.43
2022-08-28T11:09:39.057Z,11.68
2022-08-28T11:12:36.430Z,17.77
2022-08-28T11:15:40.117Z,12.13
2022-08-28T11:18:16.229Z,9.77
2022-08-28T11:20:56.701Z,12.10
2022-08-28T11:24:08.721Z,11.32
2022-08-28T11:26:39.733Z,11.80
2022-08-28T11:29:06.999Z,11.13
2022-08-28T11:31:37.537Z,12.63
2022-08-28T11:34:06.469Z,13.15
2022-08-28T11:36:33.391Z,10.13
2022-08-28T11:39:06.744Z,11.73
2022-08-28T11:41:39.149Z,8.68
2022-08-28T11:44:14.828Z,10.20
2022-08-28T11:46:44.102Z,9.88
2022-08-28T11:49:29.343Z,9.20
2022-08-28T11:52:25.857Z,7.35
2022-08-28T11:55:23.042Z,10.63
2022-08-28T11:58:16.272Z,10.35
2022-08-28T12:00:51.772Z,10.32
2022-08-28T12:03:38.409Z,9.77
2022-08-28T12:06:06.284Z,13.05
2022-08-28T12:08:45.277Z,13.43
2022-08-28T12:11:40.902Z,9.80
2022-08-28T12:14:09.918Z,9.80
2022-08-28T12:16:58.589Z,8.50
2022-08-28T12:19:36.640Z,11.38
2022-08-28T12:22:12.073Z,14.82
2022-08-28T12:24:55.141Z,8.88
2022-08-28T12:27:22.135Z,9.38
2022-08-28T12:29:55.257Z,9.55
2022-08-28T12:32:36.637Z,10.55
2022-08-28T12:35:03.494Z,10.10
2022-08-28T12:37:52.987Z,9.85
2022-08-28T12:40:47.583Z,10.30
2022-08-28T12:43:43.263Z,7.95
2022-08-28T12:46:18.906Z,10.82
2022-08-28T12:49:01.449Z,11.88
2022-08-28T12:51:34.693Z,10.23
2022-08-28T12:54:05.383Z,11.68
2022-08-28T12:56:34.242Z,9.48
2022-08-28T12:59:27.335Z,9.68
2022-08-28T13:01:54.991Z,8.68
2022-08-28T13:04:30.579Z,10.30
2022-08-28T13:07:13.516Z,10.02
2022-08-28T13:09:48.108Z,12.48
2022-08-28T13:12:34.870Z,10.18
2022-08-28T13:15:13.100Z,6.85
2022-08-28T13:17:48.636Z,7.88
2022-08-28T13:20:31.647Z,8.05
2022-08-28T13:22:59.159Z,8.68
2022-08-28T13:25:33.078Z,6.60
2022-08-28T13:28:03.210Z,6.97
2022-08-28T13:30:33.854Z,6.57
2022-08-28T13:33:16.918Z,7.68
2022-08-28T13:35:44.029Z,7.97
2022-08-28T13:38:16.711Z,6.07
2022-08-28T13:40:59.346Z,5.28
2022-08-28T13:43:29.039Z,5.25
2022-08-28T13:45:56.002Z,8.23
2022-08-28T13:48:25.147Z,9.88
2022-08-28T13:51:10.459Z,5.18
2022-08-28T13:53:38.679Z,6.03
2022-08-28T13:56:06.527Z,5.90
2022-08-28T13:58:33.417Z,6.35
2022-08-28T14:01:00.381Z,10.38
2022-08-28T14:03:38.025Z,8.93
2022-08-28T14:06:11.930Z,7.32
2022-08-28T14:08:40.282Z,8.40
2022-08-28T14:11:07.514Z,7.78
2022-08-28T14:13:34.415Z,7.22
2022-08-28T14:16:04.804Z,8.68
2022-08-28T14:18:31.819Z,7.40
2022-08-28T14:20:58.733Z,7.95
2022-08-28T14:23:25.525Z,8.38
2022-08-28T14:25:52.528Z,9.57
2022-08-28T14:28:19.319Z,8.45
2022-08-28T14:30:48.122Z,7.63
2022-08-28T14:33:18.814Z,9.13
2022-08-28T14:35:48.945Z,7.15
2022-08-28T14:38:16.323Z,8.30
2022-08-28T14:40:44.641Z,10.38
2022-08-28T14:43:12.401Z,9.25
2022-08-28T14:45:47.083Z,8.77
2022-08-28T14:48:15.047Z,12.68
2022-08-28T14:50:43.285Z,8.27
2022-08-28T14:53:10.438Z,11.35
2022-08-28T14:55:41.855Z,8.10
2022-08-28T14:58:08.683Z,9.73
2022-08-28T15:00:43.502Z,8.85
2022-08-28T15:03:11.526Z,7.57
2022-08-28T15:05:38.910Z,7.38
2022-08-28T15:08:15.494Z,9.55
2022-08-28T15:10:43.079Z,10.82
2022-08-28T15:13:10.453Z,9.23
2022-08-28T15:15:39.714Z,7.88
2022-08-28T15:18:07.418Z,9.07
2022-08-28T15:20:42.383Z,10.18
2022-08-28T15:23:09.658Z,7.97
2022-08-28T15:25:36.407Z,9.18
2022-08-28T15:28:03.433Z,10.32
2022-08-28T15:30:30.170Z,11.27
2022-08-28T15:32:57.739Z,7.82
2022-08-28T15:35:24.534Z,8.35
2022-08-28T15:37:53.644Z,10.45
2022-08-28T15:40:39.676Z,7.07
2022-08-28T15:43:06.472Z,8.93
2022-08-28T15:45:37.471Z,8.02
2022-08-28T15:48:04.436Z,10.88
2022-08-28T15:50:31.236Z,7.30
2022-08-28T15:52:58.892Z,11.05
2022-08-28T15:55:26.289Z,6.65
2022-08-28T15:57:53.479Z,6.10
2022-08-28T16:00:20.427Z,10.32
2022-08-28T16:02:47.220Z,10.68
2022-08-28T16:05:14.492Z,10.23
2022-08-28T16:07:41.244Z,6.32
2022-08-28T16:10:09.411Z,7.68
2022-08-28T16:12:40.272Z,6.75
2022-08-28T16:15:08.428Z,8.45
2022-08-28T16:17:35.183Z,8.90
2022-08-28T16:20:03.753Z,8.60
2022-08-28T16:22:30.569Z,6.50
2022-08-28T16:24:57.504Z,7.63
2022-08-28T16:27:24.268Z,7.57
2022-08-28T16:29:52.951Z,8.15
2022-08-28T16:32:20.157Z,4.18
2022-08-28T16:34:47.211Z,8.68
2022-08-28T16:37:19.471Z,9.32
2022-08-28T16:39:47.943Z,6.53
2022-08-28T16:42:15.475Z,6.35
2022-08-28T16:44:42.333Z,5.88
2022-08-28T16:47:09.231Z,8.18
2022-08-28T16:49:36.113Z,6.43
2022-08-28T16:52:03.535Z,4.70
2022-08-28T16:54:30.505Z,5.97
2022-08-28T16:56:58.100Z,6.20
2022-08-28T16:59:24.972Z,7.68
2022-08-28T17:01:53.636Z,8.90
2022-08-28T17:04:22.337Z,4.50
2022-08-28T17:06:49.563Z,11.18
2022-08-28T17:09:16.465Z,6.38
2022-08-28T17:11:43.438Z,4.53
2022-08-28T17:14:12.147Z,7.60
2022-08-28T17:16:39.083Z,10.13
2022-08-28T17:19:06.140Z,8.27
2022-08-28T17:21:51.501Z,6.80
2022-08-28T17:24:18.374Z,10.70
2022-08-28T17:26:45.121Z,9.75
2022-08-28T17:29:11.906Z,7.00
2022-08-28T17:31:38.741Z,8.52
2022-08-28T17:34:07.496Z,10.27
2022-08-28T17:36:35.976Z,6.40
2022-08-28T17:39:06.160Z,7.20
2022-08-28T17:41:34.157Z,8.45
2022-08-28T17:44:02.372Z,7.70
2022-08-28T17:46:32.793Z,4.97
2022-08-28T17:49:02.679Z,9.95
2022-08-28T17:51:42.702Z,7.90
2022-08-28T17:54:18.577Z,9.93
2022-08-28T17:56:46.569Z,7.30
2022-08-28T17:59:14.625Z,7.68
2022-08-28T18:01:42.477Z,5.85
2022-08-28T18:04:09.509Z,5.38
2022-08-28T18:06:36.750Z,6.40
2022-08-28T18:09:04.856Z,8.82
2022-08-28T18:11:31.709Z,9.80
2022-08-28T18:13:59.877Z,6.00
2022-08-28T18:16:31.223Z,5.40
2022-08-28T18:18:59.868Z,4.53
2022-08-28T18:21:27.665Z,6.18
2022-08-28T18:23:54.591Z,9.18
2022-08-28T18:26:21.537Z,8.48
2022-08-28T18:28:48.534Z,7.03
2022-08-28T18:31:15.345Z,10.45
2022-08-28T18:33:42.171Z,7.43
2022-08-28T18:36:10.431Z,7.38
2022-08-28T18:38:37.322Z,6.32
2022-08-28T18:41:05.522Z,6.93
2022-08-28T18:43:33.736Z,10.35
2022-08-28T18:46:02.165Z,8.77
2022-08-28T18:48:29.304Z,7.80
2022-08-28T18:50:56.075Z,4.75
2022-08-28T18:53:23.449Z,4.93
2022-08-28T18:55:52.686Z,7.97
2022-08-28T18:58:21.269Z,9.45
2022-08-28T19:00:48.215Z,9.55
2022-08-28T19:03:15.738Z,10.27
2022-08-28T19:05:42.581Z,9.15
2022-08-28T19:08:09.327Z,8.15
2022-08-28T19:10:37.646Z,5.97
2022-08-28T19:13:05.338Z,7.75
2022-08-28T19:15:33.434Z,8.82
2022-08-28T19:18:01.533Z,7.45
2022-08-28T19:20:29.932Z,7.68
2022-08-28T19:22:57.661Z,9.32
2022-08-28T19:25:28.590Z,7.90
2022-08-28T19:27:59.000Z,7.93
2022-08-28T19:30:28.168Z,6.80
2022-08-28T19:32:55.113Z,5.47
2022-08-28T19:35:24.332Z,9.82
2022-08-28T19:37:52.088Z,5.63
2022-08-28T19:40:19.407Z,6.78
2022-08-28T19:42:46.347Z,12.02
2022-08-28T19:45:13.974Z,7.07
2022-08-28T19:47:41.082Z,6.40
2022-08-28T19:50:09.744Z,9.05
2022-08-28T19:52:36.821Z,7.68
2022-08-28T19:55:05.837Z,6.82
2022-08-28T19:57:33.212Z,8.43
2022-08-28T20:00:00.358Z,8.73
2022-08-28T20:02:28.600Z,6.07
2022-08-28T20:04:55.598Z,4.60
2022-08-28T20:07:22.742Z,6.40
2022-08-28T20:09:49.634Z,5.50
2022-08-28T20:12:17.074Z,6.80
2022-08-28T20:14:44.802Z,7.32
2022-08-28T20:17:11.547Z,6.72
2022-08-28T20:19:38.746Z,6.40
2022-08-28T20:22:05.566Z,9.15
2022-08-28T20:24:32.498Z,5.78
2022-08-28T20:26:59.427Z,4.00
2022-08-28T20:29:26.310Z,6.63
2022-08-28T20:31:53.369Z,7.05
2022-08-28T20:34:20.646Z,8.32
2022-08-28T20:36:47.875Z,7.30
2022-08-28T20:39:15.658Z,8.57
2022-08-28T20:41:44.457Z,8.25
2022-08-28T20:44:12.989Z,8.63
2022-08-28T20:46:42.224Z,14.40
2022-08-28T20:49:13.456Z,6.70
2022-08-28T20:51:53.956Z,7.28
2022-08-28T20:54:21.766Z,8.32
2022-08-28T20:56:49.211Z,10.63
2022-08-28T20:59:15.997Z,6.20
2022-08-28T21:01:42.816Z,6.93
2022-08-28T21:04:10.082Z,6.68
2022-08-28T21:06:38.409Z,6.40
2022-08-28T21:09:05.189Z,6.78
2022-08-28T21:11:32.006Z,8.15
2022-08-28T21:13:58.871Z,6.15
2022-08-28T21:16:25.668Z,10.63
2022-08-28T21:19:14.849Z,8.57
2022-08-28T21:21:39.376Z,7.60
2022-08-28T21:24:08.343Z,12.68
2022-08-28T21:26:37.418Z,7.07
2022-08-28T21:29:07.311Z,10.00
2022-08-28T21:31:34.677Z,7.95
2022-08-28T21:34:01.788Z,9.55
2022-08-28T21:36:28.769Z,9.27
2022-08-28T21:38:57.153Z,7.22
2022-08-28T21:41:24.163Z,7.60
2022-08-28T21:43:50.860Z,9.32
2022-08-28T21:46:17.677Z,6.93
2022-08-28T21:48:49.648Z,6.53
2022-08-28T21:51:18.619Z,7.28
2022-08-28T21:53:45.447Z,7.78
2022-08-28T21:56:26.559Z,12.07
2022-08-28T21:58:55.680Z,8.75
2022-08-28T22:01:24.677Z,9.98
2022-08-28T22:03:51.708Z,10.73
2022-08-28T22:06:20.400Z,7.05
2022-08-28T22:08:47.696Z,7.30
2022-08-28T22:11:14.867Z,6.75
2022-08-28T22:13:43.833Z,10.18
2022-08-28T22:16:11.194Z,8.35
2022-08-28T22:18:38.311Z,6.00
2022-08-28T22:21:24.181Z,10.50
2022-08-28T22:23:51.273Z,6.40
2022-08-28T22:26:20.186Z,10.27
2022-08-28T22:28:47.470Z,8.90
2022-08-28T22:31:14.350Z,6.53
2022-08-28T22:33:43.074Z,6.45
2022-08-28T22:36:11.000Z,6.90
2022-08-28T22:38:39.315Z,8.23
2022-08-28T22:41:06.944Z,6.00
2022-08-28T22:43:34.543Z,8.25
2022-08-28T22:46:01.455Z,7.05
2022-08-28T22:48:28.220Z,10.18
2022-08-28T22:51:06.573Z,9.55
2022-08-28T22:53:33.970Z,11.40
2022-08-28T22:56:00.879Z,6.60
2022-08-28T22:58:32.366Z,7.13
2022-08-28T23:01:01.948Z,9.45
2022-08-28T23:03:28.784Z,9.30
2022-08-28T23:05:55.538Z,7.63
2022-08-28T23:08:22.271Z,7.68
2022-08-28T23:10:58.992Z,8.63
2022-08-28T23:13:26.203Z,10.23
2022-08-28T23:15:52.978Z,10.70
2022-08-28T23:18:20.839Z,9.70
2022-08-28T23:20:47.549Z,9.30
2022-08-28T23:23:17.531Z,9.93
2022-08-28T23:25:44.297Z,7.57
2022-08-28T23:28:10.977Z,8.90
2022-08-28T23:30:39.170Z,7.07
2022-08-28T23:33:08.566Z,6.05
2022-08-28T23:35:35.896Z,6.15
2022-08-28T23:38:03.864Z,7.53
2022-08-28T23:40:30.783Z,8.38
2022-08-28T23:42:58.262Z,9.90
2022-08-28T23:45:26.087Z,6.15
2022-08-28T23:47:54.196Z,9.20
2022-08-28T23:50:22.365Z,6.63
2022-08-28T23:52:49.517Z,7.93
2022-08-28T23:55:18.814Z,7.40
2022-08-28T23:57:45.921Z,10.75
